sensor_id;sensor_type;location;lat;lon;timestamp;pressure;altitude;pressure_sealevel;temperature;humidity
64340;BME280;63709;53.258;-8.814;2023-04-26T00:00:43;101681.34;;;12.41;100.00
64340;BME280;63709;53.258;-8.814;2023-04-26T00:03:10;101667.41;;;12.48;100.00
64340;BME280;63709;53.258;-8.814;2023-04-26T00:05:37;101668.63;;;12.57;100.00
64340;BME280;63709;53.258;-8.814;2023-04-26T00:08:03;101657.88;;;12.44;100.00
64340;BME280;63709;53.258;-8.814;2023-04-26T00:10:29;101660.25;;;12.62;100.00
64340;BME280;63709;53.258;-8.814;2023-04-26T00:12:55;101658.97;;;12.54;100.00
64340;BME280;63709;53.258;-8.814;2023-04-26T00:15:22;101657.88;;;12.44;100.00
64340;BME280;63709;53.258;-8.814;2023-04-26T00:17:48;101645.25;;;12.21;100.00
64340;BME280;63709;53.258;-8.814;2023-04-26T00:20:14;101646.53;;;12.28;100.00
64340;BME280;63709;53.258;-8.814;2023-04-26T00:22:41;101645.03;;;12.37;100.00
64340;BME280;63709;53.258;-8.814;2023-04-26T00:25:07;101645.78;;;12.26;100.00
64340;BME280;63709;53.258;-8.814;2023-04-26T00:27:34;101645.16;;;12.35;100.00
64340;BME280;63709;53.258;-8.814;2023-04-26T00:30:00;101643.53;;;12.45;100.00
64340;BME280;63709;53.258;-8.814;2023-04-26T00:32:26;101638.38;;;12.29;100.00
64340;BME280;63709;53.258;-8.814;2023-04-26T00:34:51;101633.56;;;12.34;100.00
64340;BME280;63709;53.258;-8.814;2023-04-26T00:37:18;101624.03;;;12.30;100.00
64340;BME280;63709;53.258;-8.814;2023-04-26T00:39:44;101637.66;;;12.40;100.00
64340;BME280;63709;53.258;-8.814;2023-04-26T00:42:10;101616.00;;;12.30;100.00
64340;BME280;63709;53.258;-8.814;2023-04-26T00:44:35;101640.56;;;12.50;100.00
64340;BME280;63709;53.258;-8.814;2023-04-26T00:47:04;101637.13;;;12.48;100.00
64340;BME280;63709;53.258;-8.814;2023-04-26T00:49:30;101636.88;;;12.25;100.00
64340;BME280;63709;53.258;-8.814;2023-04-26T00:51:57;101625.97;;;12.28;100.00
64340;BME280;63709;53.258;-8.814;2023-04-26T00:54:23;101630.16;;;12.32;100.00
64340;BME280;63709;53.258;-8.814;2023-04-26T00:56:50;101632.91;;;12.31;100.00
64340;BME280;63709;53.258;-8.814;2023-04-26T00:59:19;101641.69;;;12.07;100.00
64340;BME280;63709;53.258;-8.814;2023-04-26T01:01:45;101630.69;;;12.38;100.00
64340;BME280;63709;53.258;-8.814;2023-04-26T01:04:12;101625.97;;;12.41;100.00
64340;BME280;63709;53.258;-8.814;2023-04-26T01:06:39;101625.53;;;12.34;100.00
64340;BME280;63709;53.258;-8.814;2023-04-26T01:09:06;101626.06;;;12.27;100.00
64340;BME280;63709;53.258;-8.814;2023-04-26T01:11:36;101625.88;;;12.17;100.00
64340;BME280;63709;53.258;-8.814;2023-04-26T01:14:04;101621.44;;;12.16;100.00
64340;BME280;63709;53.258;-8.814;2023-04-26T01:16:30;101614.06;;;12.07;100.00
64340;BME280;63709;53.258;-8.814;2023-04-26T01:18:56;101621.88;;;12.23;100.00
64340;BME280;63709;53.258;-8.814;2023-04-26T01:21:24;101620.50;;;12.17;100.00
64340;BME280;63709;53.258;-8.814;2023-04-26T01:23:51;101619.75;;;12.15;100.00
64340;BME280;63709;53.258;-8.814;2023-04-26T01:26:17;101620.38;;;12.19;100.00
64340;BME280;63709;53.258;-8.814;2023-04-26T01:28:43;101621.69;;;12.13;100.00
64340;BME280;63709;53.258;-8.814;2023-04-26T01:31:10;101626.41;;;12.09;100.00
64340;BME280;63709;53.258;-8.814;2023-04-26T01:33:36;101615.25;;;12.16;100.00
64340;BME280;63709;53.258;-8.814;2023-04-26T01:36:01;101618.16;;;12.25;100.00
64340;BME280;63709;53.258;-8.814;2023-04-26T01:38:27;101615.28;;;12.28;100.00
64340;BME280;63709;53.258;-8.814;2023-04-26T01:40:53;101607.25;;;12.28;100.00
64340;BME280;63709;53.258;-8.814;2023-04-26T01:43:19;101591.81;;;12.32;100.00
64340;BME280;63709;53.258;-8.814;2023-04-26T01:45:49;101612.16;;;12.34;100.00
64340;BME280;63709;53.258;-8.814;2023-04-26T01:48:14;101595.25;;;12.21;100.00
64340;BME280;63709;53.258;-8.814;2023-04-26T01:50:41;101597.28;;;12.18;100.00
64340;BME280;63709;53.258;-8.814;2023-04-26T01:53:08;101593.44;;;12.09;100.00
64340;BME280;63709;53.258;-8.814;2023-04-26T01:55:38;101597.59;;;12.13;100.00
64340;BME280;63709;53.258;-8.814;2023-04-26T01:58:03;101612.16;;;12.09;100.00
64340;BME280;63709;53.258;-8.814;2023-04-26T02:00:29;101618.88;;;12.02;100.00
64340;BME280;63709;53.258;-8.814;2023-04-26T02:02:55;101612.97;;;11.97;100.00
64340;BME280;63709;53.258;-8.814;2023-04-26T02:05:21;101603.66;;;11.90;100.00
64340;BME280;63709;53.258;-8.814;2023-04-26T02:07:49;101617.91;;;12.03;100.00
64340;BME280;63709;53.258;-8.814;2023-04-26T02:10:15;101616.63;;;12.08;100.00
64340;BME280;63709;53.258;-8.814;2023-04-26T02:12:41;101619.00;;;12.13;100.00
64340;BME280;63709;53.258;-8.814;2023-04-26T02:15:07;101618.47;;;12.21;100.00
64340;BME280;63709;53.258;-8.814;2023-04-26T02:17:33;101603.78;;;11.88;100.00
64340;BME280;63709;53.258;-8.814;2023-04-26T02:19:59;101615.53;;;11.85;100.00
64340;BME280;63709;53.258;-8.814;2023-04-26T02:22:25;101612.88;;;11.71;100.00
64340;BME280;63709;53.258;-8.814;2023-04-26T02:24:51;101615.47;;;11.46;100.00
64340;BME280;63709;53.258;-8.814;2023-04-26T02:27:19;101600.19;;;11.48;100.00
64340;BME280;63709;53.258;-8.814;2023-04-26T02:29:47;101589.53;;;11.21;100.00
64340;BME280;63709;53.258;-8.814;2023-04-26T02:32:13;101587.34;;;11.13;100.00
64340;BME280;63709;53.258;-8.814;2023-04-26T02:34:39;101577.97;;;11.20;100.00
64340;BME280;63709;53.258;-8.814;2023-04-26T02:37:05;101604.84;;;11.31;100.00
64340;BME280;63709;53.258;-8.814;2023-04-26T02:39:38;101585.91;;;11.07;100.00
64340;BME280;63709;53.258;-8.814;2023-04-26T02:42:10;101589.81;;;11.16;100.00
64340;BME280;63709;53.258;-8.814;2023-04-26T02:44:36;101586.19;;;11.17;100.00
64340;BME280;63709;53.258;-8.814;2023-04-26T02:47:03;101595.69;;;10.94;100.00
64340;BME280;63709;53.258;-8.814;2023-04-26T02:49:29;101596.56;;;11.22;100.00
64340;BME280;63709;53.258;-8.814;2023-04-26T02:51:56;101583.91;;;11.38;100.00
64340;BME280;63709;53.258;-8.814;2023-04-26T02:54:23;101590.84;;;11.28;100.00
64340;BME280;63709;53.258;-8.814;2023-04-26T02:56:48;101583.34;;;11.33;100.00
64340;BME280;63709;53.258;-8.814;2023-04-26T02:59:15;101583.31;;;11.20;100.00
64340;BME280;63709;53.258;-8.814;2023-04-26T03:01:48;101570.56;;;10.97;100.00
64340;BME280;63709;53.258;-8.814;2023-04-26T03:04:14;101556.38;;;11.23;100.00
64340;BME280;63709;53.258;-8.814;2023-04-26T03:06:42;101562.94;;;11.32;100.00
64340;BME280;63709;53.258;-8.814;2023-04-26T03:09:08;101552.34;;;11.30;100.00
64340;BME280;63709;53.258;-8.814;2023-04-26T03:11:33;101563.09;;;11.43;100.00
64340;BME280;63709;53.258;-8.814;2023-04-26T03:13:59;101537.75;;;11.49;100.00
64340;BME280;63709;53.258;-8.814;2023-04-26T03:16:26;101554.50;;;11.11;100.00
64340;BME280;63709;53.258;-8.814;2023-04-26T03:18:52;101554.88;;;11.46;100.00
64340;BME280;63709;53.258;-8.814;2023-04-26T03:21:19;101547.69;;;11.47;100.00
64340;BME280;63709;53.258;-8.814;2023-04-26T03:23:50;101546.31;;;11.14;100.00
64340;BME280;63709;53.258;-8.814;2023-04-26T03:26:16;101539.88;;;11.44;100.00
64340;BME280;63709;53.258;-8.814;2023-04-26T03:28:43;101530.34;;;11.39;100.00
64340;BME280;63709;53.258;-8.814;2023-04-26T03:31:10;101544.09;;;11.21;100.00
64340;BME280;63709;53.258;-8.814;2023-04-26T03:33:36;101547.09;;;11.29;100.00
64340;BME280;63709;53.258;-8.814;2023-04-26T03:36:02;101542.94;;;11.25;100.00
64340;BME280;63709;53.258;-8.814;2023-04-26T03:38:27;101545.81;;;11.34;100.00
64340;BME280;63709;53.258;-8.814;2023-04-26T03:40:53;101542.94;;;11.25;100.00
64340;BME280;63709;53.258;-8.814;2023-04-26T03:43:19;101541.97;;;10.99;100.00
64340;BME280;63709;53.258;-8.814;2023-04-26T03:45:48;101535.41;;;11.17;100.00
64340;BME280;63709;53.258;-8.814;2023-04-26T03:48:15;101545.69;;;11.23;100.00
64340;BME280;63709;53.258;-8.814;2023-04-26T03:50:41;101522.84;;;11.32;100.00
64340;BME280;63709;53.258;-8.814;2023-04-26T03:53:10;101525.97;;;11.38;100.00
64340;BME280;63709;53.258;-8.814;2023-04-26T03:55:37;101540.41;;;11.36;100.00
64340;BME280;63709;53.258;-8.814;2023-04-26T03:58:03;101514.31;;;11.39;100.00
64340;BME280;63709;53.258;-8.814;2023-04-26T04:00:36;101525.22;;;11.36;100.00
64340;BME280;63709;53.258;-8.814;2023-04-26T04:03:01;101500.75;;;11.43;100.00
64340;BME280;63709;53.258;-8.814;2023-04-26T04:05:27;101497.44;;;11.39;100.00
64340;BME280;63709;53.258;-8.814;2023-04-26T04:07:53;101521.78;;;11.34;100.00
64340;BME280;63709;53.258;-8.814;2023-04-26T04:10:21;101500.19;;;11.37;100.00
64340;BME280;63709;53.258;-8.814;2023-04-26T04:12:52;101512.81;;;11.48;100.00
64340;BME280;63709;53.258;-8.814;2023-04-26T04:15:20;101516.47;;;11.47;100.00
64340;BME280;63709;53.258;-8.814;2023-04-26T04:17:47;101497.97;;;11.44;100.00
64340;BME280;63709;53.258;-8.814;2023-04-26T04:20:12;101511.78;;;11.51;100.00
64340;BME280;63709;53.258;-8.814;2023-04-26T04:22:39;101511.91;;;11.62;100.00
64340;BME280;63709;53.258;-8.814;2023-04-26T04:25:09;101526.84;;;11.52;100.00
64340;BME280;63709;53.258;-8.814;2023-04-26T04:27:36;101528.78;;;11.50;100.00
64340;BME280;63709;53.258;-8.814;2023-04-26T04:30:03;101511.97;;;11.35;100.00
64340;BME280;63709;53.258;-8.814;2023-04-26T04:32:31;101510.28;;;11.47;100.00
64340;BME280;63709;53.258;-8.814;2023-04-26T04:34:58;101520.84;;;11.35;100.00
64340;BME280;63709;53.258;-8.814;2023-04-26T04:37:24;101519.75;;;11.38;100.00
64340;BME280;63709;53.258;-8.814;2023-04-26T04:39:52;101518.50;;;11.44;100.00
64340;BME280;63709;53.258;-8.814;2023-04-26T04:42:18;101521.16;;;11.44;100.00
64340;BME280;63709;53.258;-8.814;2023-04-26T04:44:44;101513.25;;;11.42;100.00
64340;BME280;63709;53.258;-8.814;2023-04-26T04:47:11;101502.03;;;11.10;100.00
64340;BME280;63709;53.258;-8.814;2023-04-26T04:49:37;101500.19;;;10.98;100.00
64340;BME280;63709;53.258;-8.814;2023-04-26T04:52:03;101507.69;;;11.05;100.00
64340;BME280;63709;53.258;-8.814;2023-04-26T04:54:29;101522.69;;;10.94;100.00
64340;BME280;63709;53.258;-8.814;2023-04-26T04:56:55;101525.16;;;10.70;100.00
64340;BME280;63709;53.258;-8.814;2023-04-26T04:59:23;101508.69;;;10.34;100.00
64340;BME280;63709;53.258;-8.814;2023-04-26T05:01:49;101514.94;;;10.76;100.00
64340;BME280;63709;53.258;-8.814;2023-04-26T05:04:15;101522.63;;;10.54;100.00
64340;BME280;63709;53.258;-8.814;2023-04-26T05:06:43;101528.31;;;10.62;100.00
64340;BME280;63709;53.258;-8.814;2023-04-26T05:09:09;101524.69;;;10.49;100.00
64340;BME280;63709;53.258;-8.814;2023-04-26T05:11:35;101509.94;;;10.57;100.00
64340;BME280;63709;53.258;-8.814;2023-04-26T05:14:01;101518.00;;;10.70;100.00
64340;BME280;63709;53.258;-8.814;2023-04-26T05:16:27;101512.41;;;10.46;100.00
64340;BME280;63709;53.258;-8.814;2023-04-26T05:18:52;101515.75;;;10.50;100.00
64340;BME280;63709;53.258;-8.814;2023-04-26T05:21:18;101508.78;;;10.47;100.00
64340;BME280;63709;53.258;-8.814;2023-04-26T05:23:44;101520.03;;;10.24;100.00
64340;BME280;63709;53.258;-8.814;2023-04-26T05:26:13;101518.63;;;10.32;100.00
64340;BME280;63709;53.258;-8.814;2023-04-26T05:28:39;101524.50;;;10.37;100.00
64340;BME280;63709;53.258;-8.814;2023-04-26T05:31:06;101520.16;;;10.36;100.00
64340;BME280;63709;53.258;-8.814;2023-04-26T05:33:34;101496.41;;;10.17;100.00
64340;BME280;63709;53.258;-8.814;2023-04-26T05:36:00;101526.81;;;10.44;100.00
64340;BME280;63709;53.258;-8.814;2023-04-26T05:38:25;101522.44;;;10.28;100.00
64340;BME280;63709;53.258;-8.814;2023-04-26T05:40:52;101525.09;;;10.28;100.00
64340;BME280;63709;53.258;-8.814;2023-04-26T05:43:18;101531.97;;;10.32;100.00
64340;BME280;63709;53.258;-8.814;2023-04-26T05:45:54;101532.78;;;10.18;100.00
64340;BME280;63709;53.258;-8.814;2023-04-26T05:48:21;101521.16;;;10.19;100.00
64340;BME280;63709;53.258;-8.814;2023-04-26T05:50:47;101533.00;;;10.30;100.00
64340;BME280;63709;53.258;-8.814;2023-04-26T05:53:14;101516.03;;;10.02;100.00
64340;BME280;63709;53.258;-8.814;2023-04-26T05:55:42;101534.06;;;10.27;100.00
64340;BME280;63709;53.258;-8.814;2023-04-26T05:58:09;101533.53;;;10.06;100.00
64340;BME280;63709;53.258;-8.814;2023-04-26T06:00:36;101523.00;;;10.33;100.00
64340;BME280;63709;53.258;-8.814;2023-04-26T06:03:03;101535.38;;;10.49;100.00
64340;BME280;63709;53.258;-8.814;2023-04-26T06:05:30;101537.13;;;10.35;100.00
64340;BME280;63709;53.258;-8.814;2023-04-26T06:07:57;101515.19;;;10.16;100.00
64340;BME280;63709;53.258;-8.814;2023-04-26T06:10:23;101530.81;;;10.36;100.00
64340;BME280;63709;53.258;-8.814;2023-04-26T06:12:49;101533.19;;;10.41;100.00
64340;BME280;63709;53.258;-8.814;2023-04-26T06:15:15;101515.19;;;10.30;100.00
64340;BME280;63709;53.258;-8.814;2023-04-26T06:17:41;101535.38;;;10.49;100.00
64340;BME280;63709;53.258;-8.814;2023-04-26T06:20:08;101532.03;;;10.45;100.00
64340;BME280;63709;53.258;-8.814;2023-04-26T06:22:34;101540.81;;;10.47;100.00
64340;BME280;63709;53.258;-8.814;2023-04-26T06:25:00;101526.56;;;10.75;100.00
64340;BME280;63709;53.258;-8.814;2023-04-26T06:27:27;101539.31;;;10.84;100.00
64340;BME280;63709;53.258;-8.814;2023-04-26T06:29:53;101545.22;;;10.89;100.00
64340;BME280;63709;53.258;-8.814;2023-04-26T06:32:19;101543.16;;;11.07;100.00
64340;BME280;63709;53.258;-8.814;2023-04-26T06:34:45;101544.94;;;10.94;100.00
64340;BME280;63709;53.258;-8.814;2023-04-26T06:37:11;101543.72;;;10.85;100.00
64340;BME280;63709;53.258;-8.814;2023-04-26T06:39:36;101531.50;;;10.81;100.00
64340;BME280;63709;53.258;-8.814;2023-04-26T06:42:05;101541.69;;;10.89;100.00
64340;BME280;63709;53.258;-8.814;2023-04-26T06:44:30;101548.16;;;10.99;100.00
64340;BME280;63709;53.258;-8.814;2023-04-26T06:46:56;101547.03;;;10.89;100.00
64340;BME280;63709;53.258;-8.814;2023-04-26T06:49:24;101539.78;;;10.91;100.00
64340;BME280;63709;53.258;-8.814;2023-04-26T06:51:51;101555.47;;;11.10;100.00
64340;BME280;63709;53.258;-8.814;2023-04-26T06:54:19;101553.88;;;10.93;100.00
64340;BME280;63709;53.258;-8.814;2023-04-26T06:56:45;101543.16;;;11.07;100.00
64340;BME280;63709;53.258;-8.814;2023-04-26T06:59:11;101555.53;;;11.23;100.00
64340;BME280;63709;53.258;-8.814;2023-04-26T07:01:38;101546.06;;;11.31;100.00
64340;BME280;63709;53.258;-8.814;2023-04-26T07:04:05;101554.63;;;11.36;100.00
64340;BME280;63709;53.258;-8.814;2023-04-26T07:06:39;101544.03;;;11.35;100.00
64340;BME280;63709;53.258;-8.814;2023-04-26T07:09:05;101538.22;;;11.28;100.00
64340;BME280;63709;53.258;-8.814;2023-04-26T07:11:31;101533.69;;;11.43;100.00
64340;BME280;63709;53.258;-8.814;2023-04-26T07:13:57;101545.47;;;11.53;100.00
64340;BME280;63709;53.258;-8.814;2023-04-26T07:16:25;101561.16;;;11.45;100.00
64340;BME280;63709;53.258;-8.814;2023-04-26T07:18:51;101554.56;;;11.63;100.00
64340;BME280;63709;53.258;-8.814;2023-04-26T07:21:17;101555.06;;;11.83;100.00
64340;BME280;63709;53.258;-8.814;2023-04-26T07:23:47;101547.72;;;11.86;100.00
64340;BME280;63709;53.258;-8.814;2023-04-26T07:26:14;101555.50;;;11.90;100.00
64340;BME280;63709;53.258;-8.814;2023-04-26T07:28:41;101553.69;;;12.03;100.00
64340;BME280;63709;53.258;-8.814;2023-04-26T07:31:07;101556.78;;;11.97;100.00
64340;BME280;63709;53.258;-8.814;2023-04-26T07:33:32;101553.28;;;12.09;100.00
64340;BME280;63709;53.258;-8.814;2023-04-26T07:35:58;101541.50;;;11.99;100.00
64340;BME280;63709;53.258;-8.814;2023-04-26T07:38:26;101535.59;;;11.94;100.00
64340;BME280;63709;53.258;-8.814;2023-04-26T07:40:54;101553.19;;;11.98;100.00
64340;BME280;63709;53.258;-8.814;2023-04-26T07:43:21;101546.47;;;11.65;100.00
64340;BME280;63709;53.258;-8.814;2023-04-26T07:45:48;101554.22;;;12.08;100.00
64340;BME280;63709;53.258;-8.814;2023-04-26T07:48:14;101551.88;;;12.03;100.00
64340;BME280;63709;53.258;-8.814;2023-04-26T07:50:41;101551.13;;;12.14;100.00
64340;BME280;63709;53.258;-8.814;2023-04-26T07:53:06;101538.59;;;11.89;100.00
64340;BME280;63709;53.258;-8.814;2023-04-26T07:55:32;101530.88;;;12.23;100.00
64340;BME280;63709;53.258;-8.814;2023-04-26T07:57:57;101544.28;;;12.23;100.00
64340;BME280;63709;53.258;-8.814;2023-04-26T08:00:26;101552.41;;;12.34;100.00
64340;BME280;63709;53.258;-8.814;2023-04-26T08:02:52;101543.94;;;12.40;100.00
64340;BME280;63709;53.258;-8.814;2023-04-26T08:05:20;101546.03;;;12.60;100.00
64340;BME280;63709;53.258;-8.814;2023-04-26T08:07:46;101550.00;;;12.68;100.00
64340;BME280;63709;53.258;-8.814;2023-04-26T08:10:12;101533.19;;;12.53;100.00
64340;BME280;63709;53.258;-8.814;2023-04-26T08:12:38;101549.22;;;12.78;100.00
64340;BME280;63709;53.258;-8.814;2023-04-26T08:15:05;101531.56;;;12.76;100.00
64340;BME280;63709;53.258;-8.814;2023-04-26T08:17:31;101547.38;;;12.92;100.00
64340;BME280;63709;53.258;-8.814;2023-04-26T08:19:58;101548.84;;;12.96;100.00
64340;BME280;63709;53.258;-8.814;2023-04-26T08:22:25;101537.44;;;12.81;100.00
64340;BME280;63709;53.258;-8.814;2023-04-26T08:24:54;101533.75;;;12.45;100.00
64340;BME280;63709;53.258;-8.814;2023-04-26T08:27:20;101527.41;;;12.59;100.00
64340;BME280;63709;53.258;-8.814;2023-04-26T08:29:46;101526.50;;;12.71;100.00
64340;BME280;63709;53.258;-8.814;2023-04-26T08:32:12;101531.78;;;12.97;100.00
64340;BME280;63709;53.258;-8.814;2023-04-26T08:34:38;101544.31;;;13.09;100.00
64340;BME280;63709;53.258;-8.814;2023-04-26T08:37:06;101532.84;;;13.07;100.00
64340;BME280;63709;53.258;-8.814;2023-04-26T08:39:32;101523.81;;;12.84;100.00
64340;BME280;63709;53.258;-8.814;2023-04-26T08:41:59;101529.13;;;12.97;100.00
64340;BME280;63709;53.258;-8.814;2023-04-26T08:44:32;101516.13;;;12.79;100.00
64340;BME280;63709;53.258;-8.814;2023-04-26T08:47:03;101488.63;;;12.89;100.00
64340;BME280;63709;53.258;-8.814;2023-04-26T08:51:58;101519.91;;;13.25;100.00
64340;BME280;63709;53.258;-8.814;2023-04-26T08:54:26;101509.97;;;13.38;100.00
64340;BME280;63709;53.258;-8.814;2023-04-26T08:56:54;101530.50;;;13.50;100.00
64340;BME280;63709;53.258;-8.814;2023-04-26T08:59:23;101527.69;;;13.52;100.00
64340;BME280;63709;53.258;-8.814;2023-04-26T09:01:49;101517.63;;;13.67;100.00
64340;BME280;63709;53.258;-8.814;2023-04-26T09:04:15;101520.22;;;13.68;100.00
64340;BME280;63709;53.258;-8.814;2023-04-26T09:06:42;101520.28;;;14.02;100.00
64340;BME280;63709;53.258;-8.814;2023-04-26T09:09:08;101517.81;;;13.88;100.00
64340;BME280;63709;53.258;-8.814;2023-04-26T09:11:55;101492.28;;;13.82;100.00
64340;BME280;63709;53.258;-8.814;2023-04-26T09:14:22;101471.66;;;13.71;100.00
64340;BME280;63709;53.258;-8.814;2023-04-26T09:16:49;101520.63;;;14.20;100.00
64340;BME280;63709;53.258;-8.814;2023-04-26T09:19:17;101511.84;;;14.29;100.00
64340;BME280;63709;53.258;-8.814;2023-04-26T09:21:46;101469.25;;;14.24;100.00
64340;BME280;63709;53.258;-8.814;2023-04-26T09:24:12;101478.78;;;14.51;100.00
64340;BME280;63709;53.258;-8.814;2023-04-26T09:26:38;101460.47;;;14.00;100.00
64340;BME280;63709;53.258;-8.814;2023-04-26T09:29:15;101484.38;;;14.70;100.00
64340;BME280;63709;53.258;-8.814;2023-04-26T09:31:43;101463.97;;;14.68;100.00
64340;BME280;63709;53.258;-8.814;2023-04-26T09:34:10;101480.34;;;14.31;100.00
64340;BME280;63709;53.258;-8.814;2023-04-26T09:36:50;101504.78;;;15.05;100.00
64340;BME280;63709;53.258;-8.814;2023-04-26T09:39:34;101465.59;;;14.59;100.00
64340;BME280;63709;53.258;-8.814;2023-04-26T09:42:03;101498.66;;;15.14;100.00
64340;BME280;63709;53.258;-8.814;2023-04-26T09:44:29;101504.44;;;15.31;100.00
64340;BME280;63709;53.258;-8.814;2023-04-26T09:47:05;101509.34;;;15.58;100.00
64340;BME280;63709;53.258;-8.814;2023-04-26T09:49:44;101498.25;;;15.51;100.00
64340;BME280;63709;53.258;-8.814;2023-04-26T09:52:17;101462.84;;;15.35;100.00
64340;BME280;63709;53.258;-8.814;2023-04-26T09:54:50;101511.28;;;15.35;100.00
64340;BME280;63709;53.258;-8.814;2023-04-26T09:57:17;101468.06;;;15.47;100.00
64340;BME280;63709;53.258;-8.814;2023-04-26T09:59:46;101474.03;;;15.51;100.00
64340;BME280;63709;53.258;-8.814;2023-04-26T10:04:48;101446.47;;;15.17;100.00
64340;BME280;63709;53.258;-8.814;2023-04-26T10:07:16;101471.31;;;15.09;100.00
64340;BME280;63709;53.258;-8.814;2023-04-26T10:09:42;101469.72;;;15.28;100.00
64340;BME280;63709;53.258;-8.814;2023-04-26T10:12:15;101448.28;;;15.16;100.00
64340;BME280;63709;53.258;-8.814;2023-04-26T10:14:43;101466.22;;;14.95;100.00
64340;BME280;63709;53.258;-8.814;2023-04-26T10:17:09;101464.94;;;15.10;100.00
64340;BME280;63709;53.258;-8.814;2023-04-26T10:19:37;101477.94;;;15.26;100.00
64340;BME280;63709;53.258;-8.814;2023-04-26T10:22:15;101476.59;;;15.32;100.00
64340;BME280;63709;53.258;-8.814;2023-04-26T10:24:43;101503.63;;;15.51;100.00
64340;BME280;63709;53.258;-8.814;2023-04-26T10:27:09;101488.53;;;15.39;100.00
64340;BME280;63709;53.258;-8.814;2023-04-26T10:32:20;101509.03;;;15.93;100.00
64340;BME280;63709;53.258;-8.814;2023-04-26T10:35:12;101507.34;;;15.92;100.00
64340;BME280;63709;53.258;-8.814;2023-04-26T10:40:36;101492.81;;;15.83;100.00
64340;BME280;63709;53.258;-8.814;2023-04-26T10:45:41;101449.38;;;15.67;100.00
64340;BME280;63709;53.258;-8.814;2023-04-26T10:48:37;101506.19;;;16.15;100.00
64340;BME280;63709;53.258;-8.814;2023-04-26T10:51:15;101513.66;;;16.12;100.00
64340;BME280;63709;53.258;-8.814;2023-04-26T10:59:30;101485.91;;;16.52;100.00
64340;BME280;63709;53.258;-8.814;2023-04-26T11:02:02;101490.50;;;16.70;100.00
64340;BME280;63709;53.258;-8.814;2023-04-26T11:04:52;101499.09;;;16.95;100.00
64340;BME280;63709;53.258;-8.814;2023-04-26T11:07:43;101499.09;;;17.14;100.00
64340;BME280;63709;53.258;-8.814;2023-04-26T11:10:09;101502.50;;;17.26;100.00
64340;BME280;63709;53.258;-8.814;2023-04-26T11:13:05;101498.25;;;17.43;98.88
64340;BME280;63709;53.258;-8.814;2023-04-26T11:15:31;101505.63;;;17.22;95.97
64340;BME280;63709;53.258;-8.814;2023-04-26T11:18:10;101496.41;;;17.34;91.66
64340;BME280;63709;53.258;-8.814;2023-04-26T11:20:36;101421.59;;;16.87;92.38
64340;BME280;63709;53.258;-8.814;2023-04-26T11:23:02;101482.34;;;17.11;95.97
64340;BME280;63709;53.258;-8.814;2023-04-26T11:25:28;101496.00;;;17.29;94.99
64340;BME280;63709;53.258;-8.814;2023-04-26T11:28:15;101448.69;;;17.05;92.53
64340;BME280;63709;53.258;-8.814;2023-04-26T11:31:09;101491.00;;;17.44;96.13
64340;BME280;63709;53.258;-8.814;2023-04-26T11:33:45;101425.53;;;17.22;94.77
64340;BME280;63709;53.258;-8.814;2023-04-26T11:36:30;101441.41;;;17.54;93.43
64340;BME280;63709;53.258;-8.814;2023-04-26T11:39:23;101488.59;;;18.17;99.19
64340;BME280;63709;53.258;-8.814;2023-04-26T11:42:15;101467.88;;;17.98;85.94
64340;BME280;63709;53.258;-8.814;2023-04-26T11:45:05;101486.34;;;18.12;85.00
64340;BME280;63709;53.258;-8.814;2023-04-26T11:47:36;101478.56;;;17.99;80.01
64340;BME280;63709;53.258;-8.814;2023-04-26T11:50:16;101477.75;;;17.89;83.54
64340;BME280;63709;53.258;-8.814;2023-04-26T11:52:47;101487.66;;;17.98;84.06
64340;BME280;63709;53.258;-8.814;2023-04-26T11:55:23;101478.50;;;18.19;86.85
64340;BME280;63709;53.258;-8.814;2023-04-26T11:57:50;101444.13;;;18.01;83.74
64340;BME280;63709;53.258;-8.814;2023-04-26T12:00:16;101484.25;;;18.33;80.12
64340;BME280;63709;53.258;-8.814;2023-04-26T12:03:09;101478.47;;;18.28;83.26
64340;BME280;63709;53.258;-8.814;2023-04-26T12:06:02;101482.41;;;18.34;86.51
64340;BME280;63709;53.258;-8.814;2023-04-26T12:09:03;101415.59;;;17.99;84.12
64340;BME280;63709;53.258;-8.814;2023-04-26T12:12:07;101487.13;;;18.32;82.19
64340;BME280;63709;53.258;-8.814;2023-04-26T12:14:34;101488.09;;;18.31;83.82
64340;BME280;63709;53.258;-8.814;2023-04-26T12:17:06;101490.66;;;18.32;82.31
64340;BME280;63709;53.258;-8.814;2023-04-26T12:19:39;101460.28;;;17.64;86.06
64340;BME280;63709;53.258;-8.814;2023-04-26T12:22:08;101467.03;;;17.97;91.03
64340;BME280;63709;53.258;-8.814;2023-04-26T12:24:42;101475.34;;;18.23;86.44
64340;BME280;63709;53.258;-8.814;2023-04-26T12:27:19;101433.25;;;17.83;91.20
64340;BME280;63709;53.258;-8.814;2023-04-26T12:29:51;101474.41;;;17.09;92.71
64340;BME280;63709;53.258;-8.814;2023-04-26T12:32:17;101431.84;;;17.79;90.39
64340;BME280;63709;53.258;-8.814;2023-04-26T12:34:42;101470.53;;;18.17;91.27
64340;BME280;63709;53.258;-8.814;2023-04-26T12:37:08;101453.50;;;18.07;90.11
64340;BME280;63709;53.258;-8.814;2023-04-26T12:39:34;101473.09;;;18.19;89.52
64340;BME280;63709;53.258;-8.814;2023-04-26T12:42:00;101465.13;;;18.17;86.63
64340;BME280;63709;53.258;-8.814;2023-04-26T12:44:29;101462.66;;;17.96;86.78
64340;BME280;63709;53.258;-8.814;2023-04-26T12:46:55;101445.50;;;17.87;88.60
64340;BME280;63709;53.258;-8.814;2023-04-26T12:49:21;101458.19;;;18.05;90.46
64340;BME280;63709;53.258;-8.814;2023-04-26T12:51:47;101449.81;;;17.98;90.95
64340;BME280;63709;53.258;-8.814;2023-04-26T12:54:13;101448.44;;;17.94;88.82
64340;BME280;63709;53.258;-8.814;2023-04-26T12:56:39;101481.78;;;18.12;88.75